FW4381 Weather Reports


Display with metric or nautical units.
time (UTC)temp
F
wind
direction
speed
MPH
gust
MPH
rain 1hr
in
rain 24hr
in
rain mn
in
humidity
%
barometer
mb
20240722033016 79 0 0.0 2.0 0.00 0.32 0.32 88 1018.8
20240722020015 80 0 0.0 3.0 0.00 0.32 0.32 89 1018.7
20240722003016 81 221 4.0 8.0 0.00 0.32 0.32 88 1017.5
20240721230016 83 223 4.0 10.0 0.00 0.32 0.32 82 1017.2
20240721224516 83 228 2.0 7.0 0.00 0.32 0.32 83 1016.6
20240721213017 84 206 3.0 6.0 0.00 0.32 0.32 82 1016.5
20240721211518 84 225 3.0 9.0 0.00 0.32 0.32 82 1016.6
20240721200016 84 222 5.0 10.0 0.00 0.32 0.32 79 1017.2
20240721194517 85 240 2.0 8.0 0.00 0.32 0.32 80 1017.2
20240721180012 84 268 6.0 11.0 0.00 0.32 0.32 83 1018.3
20240721163015 80 256 1.0 5.0 0.00 0.32 0.32 88 1018.9
20240721161515 79 0 0.0 3.0 0.00 0.32 0.32 89 1018.9
20240721160013 78 0 0.0 0.0 0.00 0.32 0.32 89 1019.0
20240721154514 78 0 0.0 0.0 0.00 0.32 0.32 91 1018.8
20240721153015 78 22 2.0 3.0 0.00 0.32 0.32 92 1018.9
20240721151516 78 0 0.0 3.0 0.00 0.32 0.32 92 1018.9
20240721150014 78 0 0.0 2.0 0.00 0.32 0.32 93 1018.7
20240721144518 77 0 1.0 3.0 0.00 0.32 0.32 93 1018.7
20240721143025 77 0 0.0 4.0 0.00 0.32 0.32 94 1018.8
20240721141516 77 147 0.0 3.0 0.00 0.32 0.32 94 1018.9
20240721140013 77 0 0.0 3.0 0.00 0.32 0.32 95 1018.8
20240721134519 76 0 0.0 3.0 0.00 0.32 0.32 95 1018.8
20240721133035 76 0 0.0 0.0 0.00 0.32 0.32 95 1018.7
20240721131522 76 0 0.0 0.0 0.00 0.32 0.32 96 1018.7
20240721130025 76 208 0.0 3.0 0.00 0.32 0.32 96 1018.8
20240721124513 76 0 0.0 0.0 0.00 0.32 0.32 96 1018.8
20240721123014 76 0 0.0 0.0 0.00 0.32 0.32 96 1018.6
20240721121516 76 0 0.0 0.0 0.00 0.32 0.32 96 1018.5
20240721120025 76 0 0.0 0.0 0.00 0.32 0.32 96 1018.2
20240721114518 76 0 0.0 0.0 0.00 0.32 0.32 96 1018.2
20240721113013 75 0 0.0 0.0 0.00 0.32 0.32 96 1018.2
20240721111516 75 0 0.0 0.0 0.00 0.32 0.32 96 1018.3
20240721110013 75 0 0.0 0.0 0.00 0.32 0.32 96 1018.3
20240721104516 74 0 0.0 0.0 0.00 0.32 0.32 95 1018.2
20240721103014 74 0 0.0 0.0 0.00 0.32 0.32 95 1018.2
20240721101518 74 0 0.0 0.0 0.00 0.32 0.32 95 1017.9
20240721100014 74 0 0.0 0.0 0.00 0.32 0.32 95 1017.7
20240721094517 75 0 0.0 1.0 0.00 0.32 0.32 96 1017.6
20240721093013 75 0 0.0 1.0 0.00 0.32 0.32 96 1017.4
20240721091514 74 0 1.0 3.0 0.00 0.32 0.32 95 1017.6
20240721090024 73 0 0.0 0.0 0.00 0.32 0.32 95 1017.5
20240721084520 73 0 0.0 0.0 0.00 0.33 0.32 95 1017.3
20240721083022 73 0 0.0 0.0 0.00 0.33 0.32 95 1017.5
20240721081520 73 0 0.0 0.0 0.00 0.33 0.32 95 1017.4
20240721080016 73 0 0.0 0.0 0.00 0.33 0.32 95 1017.5
20240721073016 73 0 0.0 0.0 0.00 0.39 0.32 95 1017.7
20240721071516 72 0 0.0 0.0 0.00 0.39 0.32 94 1017.9
20240721070018 72 0 0.0 2.0 0.03 0.39 0.32 94 1017.8
20240721064518 72 0 0.0 1.0 0.07 0.41 0.32 94 1017.9
20240721063025 72 360 0.0 2.0 0.13 0.41 0.32 93 1018.2
20240721061518 72 0 0.0 3.0 0.23 0.41 0.32 93 1018.3
20240721060015 72 355 3.0 9.0 0.29 0.38 0.29 92 1018.6
20240721054513 72 59 2.0 9.0 0.24 0.33 0.24 92 1019.2
20240721053014 74 17 4.0 10.0 0.18 0.27 0.18 90 1019.3
20240721051804 77 17 3.0 10.0 0.08 0.17 0.08 86 1019.4
20240721050013 81 46 2.0 8.0 0.00 0.09 0.00 85 1019.2